createdAt,value
2018-04-15T00:00:08.740Z,1017.44
2018-04-15T00:01:30.031Z,1017.46
2018-04-15T00:02:30.603Z,1017.45
2018-04-15T00:03:30.644Z,1017.44
2018-04-15T00:04:30.181Z,1017.43
2018-04-15T00:05:52.346Z,1017.40
2018-04-15T00:06:52.853Z,1017.39
2018-04-15T00:07:52.425Z,1017.36
2018-04-15T00:08:52.808Z,1017.32
2018-04-15T00:09:52.744Z,1017.32
2018-04-15T00:10:52.487Z,1017.27
2018-04-15T00:11:53.006Z,1017.31
2018-04-15T00:13:14.367Z,1017.27
2018-04-15T00:14:35.015Z,1017.29
2018-04-15T00:15:36.067Z,1017.29
2018-04-15T00:16:35.966Z,1017.28
2018-04-15T00:17:35.850Z,1017.29
2018-04-15T00:18:35.742Z,1017.25
2018-04-15T00:19:35.214Z,1017.18
2018-04-15T00:20:35.988Z,1017.00
2018-04-15T00:21:35.857Z,1017.15
2018-04-15T00:22:56.932Z,1017.14
2018-04-15T00:23:57.877Z,1017.13
2018-04-15T00:24:57.817Z,1017.15
2018-04-15T00:25:57.285Z,1017.14
2018-04-15T00:26:58.024Z,1017.16
2018-04-15T00:27:57.717Z,1017.11
2018-04-15T00:29:18.435Z,1017.10
2018-04-15T00:30:18.986Z,1017.07
2018-04-15T00:31:19.784Z,1017.02
2018-04-15T00:32:19.310Z,1016.99
2018-04-15T00:33:18.855Z,1017.00
2018-04-15T00:34:19.234Z,1016.91
2018-04-15T00:35:18.945Z,1016.95
2018-04-15T00:36:19.457Z,1016.92
2018-04-15T00:37:19.115Z,1016.91
2018-04-15T00:38:18.499Z,1016.92
2018-04-15T00:39:19.574Z,1016.93
2018-04-15T00:40:19.401Z,1016.91
2018-04-15T00:41:19.144Z,1016.90
2018-04-15T00:42:18.641Z,1016.86
2018-04-15T00:43:19.155Z,1016.85
2018-04-15T00:44:18.630Z,1016.83
2018-04-15T00:45:19.356Z,1016.81
2018-04-15T00:46:18.936Z,1016.81
2018-04-15T00:47:18.457Z,1016.81
2018-04-15T00:48:18.979Z,1016.77
2018-04-15T00:49:18.900Z,1016.79
2018-04-15T00:50:19.736Z,1016.74
2018-04-15T00:51:19.511Z,1016.79
2018-04-15T00:52:19.018Z,1016.75
2018-04-15T00:53:18.738Z,1016.78
2018-04-15T00:54:19.711Z,1016.78
2018-04-15T00:56:01.611Z,1016.74
2018-04-15T00:57:02.179Z,1016.73
2018-04-15T00:58:02.051Z,1016.74
2018-04-15T00:59:02.587Z,1016.76
2018-04-15T01:00:02.953Z,1016.78
2018-04-15T01:02:07.494Z,1016.78
2018-04-15T01:03:08.458Z,1016.78
2018-04-15T01:04:07.857Z,1016.78
2018-04-15T01:05:09.319Z,1016.76
2018-04-15T01:06:08.143Z,1016.72
2018-04-15T01:07:08.115Z,1016.69
2018-04-15T01:08:07.972Z,1016.69
2018-04-15T01:09:29.080Z,1016.71
2018-04-15T01:10:51.072Z,1016.67
2018-04-15T01:12:12.988Z,1016.65
2018-04-15T01:13:13.663Z,1016.62
2018-04-15T01:14:13.540Z,1016.58
2018-04-15T01:15:34.858Z,1016.55
2018-04-15T01:16:56.973Z,1016.54
2018-04-15T01:17:57.924Z,1016.51
2018-04-15T01:18:57.637Z,1016.49
2018-04-15T01:19:57.018Z,1016.48
2018-04-15T01:20:57.597Z,1016.52
2018-04-15T01:22:18.449Z,1016.47
2018-04-15T01:23:19.657Z,1016.51
2018-04-15T01:24:18.405Z,1016.54
2018-04-15T01:25:18.835Z,1016.54
2018-04-15T01:26:18.587Z,1016.51
2018-04-15T01:27:40.601Z,1016.47
2018-04-15T01:28:41.148Z,1016.41
2018-04-15T01:29:40.824Z,1016.37
2018-04-15T01:30:40.862Z,1016.29
2018-04-15T01:31:41.582Z,1016.12
2018-04-15T01:45:27.978Z,1016.13
2018-04-15T01:46:49.884Z,1016.08
2018-04-15T01:47:50.298Z,1016.09
2018-04-15T01:48:49.802Z,1016.06
2018-04-15T01:49:50.875Z,1016.01
2018-04-15T01:50:50.815Z,1016.05
2018-04-15T01:51:50.398Z,1016.01
2018-04-15T01:52:49.928Z,1016.05
2018-04-15T01:53:51.017Z,1016.06
2018-04-15T01:54:50.572Z,1016.07
2018-04-15T01:55:50.284Z,1016.05
2018-04-15T01:56:50.401Z,1016.07
2018-04-15T01:57:50.304Z,1016.05
2018-04-15T01:58:50.893Z,1016.07
2018-04-15T01:59:51.513Z,1016.04
2018-04-15T02:00:50.512Z,1016.07
2018-04-15T02:01:50.232Z,1016.06
2018-04-15T02:02:50.088Z,1016.07
2018-04-15T02:03:50.303Z,1016.05
2018-04-15T02:04:49.996Z,1016.02
2018-04-15T02:05:50.997Z,1016.04
2018-04-15T02:06:51.036Z,1016.00
2018-04-15T02:08:11.374Z,1016.00
2018-04-15T02:09:11.972Z,1015.96
2018-04-15T02:10:11.733Z,1015.92
2018-04-15T02:11:32.432Z,1015.92
2018-04-15T02:12:33.393Z,1015.91
2018-04-15T02:13:32.439Z,1015.89
2018-04-15T02:14:32.066Z,1015.86
2018-04-15T02:15:33.168Z,1015.81
2018-04-15T02:17:14.323Z,1015.81
2018-04-15T02:18:14.886Z,1015.83
2018-04-15T02:19:14.916Z,1015.77
2018-04-15T02:20:36.817Z,1015.75
2018-04-15T02:21:36.572Z,1015.73
2018-04-15T02:22:36.306Z,1015.70
2018-04-15T02:23:36.325Z,1015.71
2018-04-15T02:24:36.005Z,1015.67
2018-04-15T02:25:36.918Z,1015.70
2018-04-15T02:26:37.019Z,1015.73
2018-04-15T02:27:58.200Z,1015.70
2018-04-15T02:28:58.349Z,1015.70
2018-04-15T02:29:58.156Z,1015.70
2018-04-15T02:30:58.010Z,1015.69
2018-04-15T02:31:57.616Z,1015.70
2018-04-15T02:32:57.674Z,1015.71
2018-04-15T02:33:57.660Z,1015.75
2018-04-15T02:34:57.270Z,1015.73
2018-04-15T02:35:57.984Z,1015.73
2018-04-15T02:36:57.965Z,1015.77
2018-04-15T02:37:57.912Z,1015.73
2018-04-15T02:38:57.425Z,1015.74
2018-04-15T02:39:58.025Z,1015.78
2018-04-15T02:40:57.779Z,1015.87
2018-04-15T02:41:57.936Z,1015.88
2018-04-15T02:42:57.723Z,1015.89
2018-04-15T02:43:57.557Z,1015.94
2018-04-15T02:44:58.032Z,1015.94
2018-04-15T02:45:57.689Z,1015.89
2018-04-15T02:46:57.237Z,1015.84
2018-04-15T02:48:18.246Z,1015.77
2018-04-15T02:49:18.765Z,1015.73
2018-04-15T02:50:18.850Z,1015.74
2018-04-15T02:51:18.416Z,1015.79
2018-04-15T02:52:41.931Z,1015.87
2018-04-15T02:53:42.339Z,1015.84
2018-04-15T02:54:42.043Z,1015.78
2018-04-15T02:56:02.695Z,1015.76
2018-04-15T02:57:03.634Z,1015.76
2018-04-15T02:58:03.217Z,1015.67
2018-04-15T02:59:02.885Z,1015.69
2018-04-15T03:00:02.496Z,1015.72
2018-04-15T03:01:03.463Z,1015.76
2018-04-15T03:02:03.022Z,1015.78
2018-04-15T03:03:03.022Z,1015.74
2018-04-15T03:04:02.579Z,1015.80
2018-04-15T03:05:23.468Z,1015.79
2018-04-15T03:06:23.956Z,1015.86
2018-04-15T03:07:24.016Z,1015.83
2018-04-15T03:09:04.723Z,1015.86
2018-04-15T03:10:05.401Z,1015.86
2018-04-15T03:11:04.963Z,1015.87
2018-04-15T03:12:05.504Z,1015.83
2018-04-15T03:13:05.448Z,1015.76
2018-04-15T03:14:05.129Z,1015.77
2018-04-15T03:15:05.076Z,1015.80
2018-04-15T03:16:04.706Z,1015.82
2018-04-15T03:17:05.391Z,1015.79
2018-04-15T03:18:04.859Z,1015.81
2018-04-15T03:19:05.699Z,1015.83
2018-04-15T03:20:05.631Z,1015.82
2018-04-15T03:21:05.539Z,1015.82
2018-04-15T03:22:05.172Z,1015.81
2018-04-15T03:23:04.635Z,1015.77
2018-04-15T03:24:05.330Z,1015.77
2018-04-15T03:25:04.999Z,1015.78
2018-04-15T03:26:04.733Z,1015.77
2018-04-15T03:27:05.372Z,1015.77
2018-04-15T03:28:04.966Z,1015.74
2018-04-15T03:29:25.104Z,1015.72
2018-04-15T03:30:25.865Z,1015.74
2018-04-15T03:31:25.842Z,1015.74
2018-04-15T03:32:46.627Z,1015.76
2018-04-15T03:33:47.702Z,1015.76
2018-04-15T03:34:46.287Z,1015.74
2018-04-15T03:35:46.981Z,1015.72
2018-04-15T03:36:47.683Z,1015.71
2018-04-15T03:37:46.756Z,1015.68
2018-04-15T03:38:46.859Z,1015.70
2018-04-15T03:39:46.551Z,1015.71
2018-04-15T03:40:47.177Z,1015.68
2018-04-15T03:42:07.094Z,1015.67
2018-04-15T03:43:07.685Z,1015.68
2018-04-15T03:44:07.558Z,1015.66
2018-04-15T03:45:07.325Z,1015.62
2018-04-15T03:46:08.321Z,1015.66
2018-04-15T03:47:07.917Z,1015.64
2018-04-15T03:48:07.849Z,1015.65
2018-04-15T03:49:07.365Z,1015.67
2018-04-15T03:50:07.618Z,1015.66
2018-04-15T03:51:07.326Z,1015.62
2018-04-15T03:52:07.989Z,1015.64
2018-04-15T03:53:07.595Z,1015.63
2018-04-15T03:54:07.692Z,1015.60
2018-04-15T03:55:07.736Z,1015.65
2018-04-15T03:56:07.593Z,1015.66
2018-04-15T03:57:07.273Z,1015.63
2018-04-15T03:58:28.722Z,1015.60
2018-04-15T03:59:28.340Z,1015.60
2018-04-15T04:00:49.474Z,1015.57
2018-04-15T04:01:50.317Z,1015.57
2018-04-15T04:02:49.794Z,1015.55
2018-04-15T04:03:50.529Z,1015.57
2018-04-15T04:04:49.934Z,1015.60
2018-04-15T04:05:49.702Z,1015.56
2018-04-15T04:07:10.893Z,1015.55
2018-04-15T04:08:10.574Z,1015.54
2018-04-15T04:09:11.659Z,1015.54
2018-04-15T04:10:11.478Z,1015.49
2018-04-15T04:11:11.120Z,1015.52
2018-04-15T04:12:11.237Z,1015.54
2018-04-15T04:13:11.105Z,1015.53
2018-04-15T04:14:11.161Z,1015.47
2018-04-15T04:15:10.884Z,1015.46
2018-04-15T04:16:11.291Z,1015.45
2018-04-15T04:17:10.932Z,1015.44
2018-04-15T04:18:10.500Z,1015.49
2018-04-15T04:19:11.476Z,1015.50
2018-04-15T04:20:11.548Z,1015.50
2018-04-15T04:21:11.185Z,1015.51
2018-04-15T04:22:32.017Z,1015.53
2018-04-15T04:23:32.145Z,1015.55
2018-04-15T04:24:33.313Z,1015.56
2018-04-15T04:25:32.002Z,1015.54
2018-04-15T04:26:32.079Z,1015.56
2018-04-15T04:27:52.129Z,1015.54
2018-04-15T04:29:13.930Z,1015.55
2018-04-15T04:30:34.658Z,1015.59
2018-04-15T04:31:56.334Z,1015.59
2018-04-15T04:32:56.898Z,1015.57
2018-04-15T04:33:56.832Z,1015.60
2018-04-15T04:34:56.651Z,1015.60
2018-04-15T04:35:57.626Z,1015.54
2018-04-15T04:36:56.719Z,1015.59
2018-04-15T04:37:56.500Z,1015.60
2018-04-15T04:38:56.718Z,1015.60
2018-04-15T04:39:56.812Z,1015.62
2018-04-15T04:40:56.531Z,1015.65
2018-04-15T04:42:37.297Z,1015.64
2018-04-15T04:43:58.639Z,1015.65
2018-04-15T04:44:59.134Z,1015.65
2018-04-15T04:45:59.122Z,1015.63
2018-04-15T04:46:58.917Z,1015.65
2018-04-15T04:48:40.900Z,1015.63
2018-04-15T04:49:40.704Z,1015.62
2018-04-15T04:50:41.297Z,1015.57
2018-04-15T04:51:41.379Z,1015.58
2018-04-15T04:52:41.044Z,1015.57
2018-04-15T04:53:41.046Z,1015.57
2018-04-15T04:55:01.488Z,1015.60
2018-04-15T04:56:02.444Z,1015.60
2018-04-15T04:57:02.514Z,1015.58
2018-04-15T04:58:02.725Z,1015.60
2018-04-15T04:59:02.310Z,1015.63
2018-04-15T05:00:02.019Z,1015.63
2018-04-15T05:01:02.792Z,1015.64
2018-04-15T05:02:26.520Z,1015.65
2018-04-15T05:03:23.918Z,1015.64
2018-04-15T05:04:22.519Z,1015.69
2018-04-15T05:05:23.134Z,1015.72
2018-04-15T05:06:22.704Z,1015.68
2018-04-15T05:07:23.713Z,1015.66
2018-04-15T05:08:42.914Z,1015.71
2018-04-15T05:09:44.169Z,1015.70
2018-04-15T05:10:43.257Z,1015.74
2018-04-15T05:11:44.968Z,1015.68
2018-04-15T05:12:42.930Z,1015.75
2018-04-15T05:14:06.760Z,1015.70
2018-04-15T05:15:28.545Z,1015.76
2018-04-15T05:16:49.889Z,1015.73
2018-04-15T05:17:49.668Z,1015.73
2018-04-15T05:18:49.839Z,1015.71
2018-04-15T05:19:49.530Z,1015.71
2018-04-15T05:20:50.651Z,1015.70
2018-04-15T05:22:09.887Z,1015.70
2018-04-15T05:23:11.047Z,1015.73
2018-04-15T05:24:10.679Z,1015.70
2018-04-15T05:25:10.580Z,1015.69
2018-04-15T05:26:10.160Z,1015.72
2018-04-15T05:27:11.215Z,1015.71
2018-04-15T05:28:30.889Z,1015.73
2018-04-15T05:29:31.639Z,1015.75
2018-04-15T05:30:32.003Z,1015.80
2018-04-15T05:31:32.931Z,1015.77
2018-04-15T05:32:31.853Z,1015.77
2018-04-15T05:33:52.459Z,1015.77
2018-04-15T05:34:53.099Z,1015.81
2018-04-15T05:35:53.135Z,1015.84
2018-04-15T05:36:53.367Z,1015.83
2018-04-15T05:37:53.212Z,1015.74
2018-04-15T05:38:53.284Z,1015.66
2018-04-15T05:39:53.815Z,1015.64
2018-04-15T05:40:53.655Z,1015.71
2018-04-15T05:41:53.400Z,1015.75
2018-04-15T05:42:53.068Z,1015.78
2018-04-15T05:43:53.256Z,1015.80
2018-04-15T05:44:53.020Z,1015.80
2018-04-15T05:46:35.009Z,1015.77
2018-04-15T05:47:56.794Z,1015.82
2018-04-15T05:48:56.608Z,1015.76
2018-04-15T05:49:57.245Z,1015.71
2018-04-15T05:51:18.010Z,1015.73
2018-04-15T05:52:19.530Z,1015.67
2018-04-15T05:53:18.377Z,1015.66
2018-04-15T05:54:18.345Z,1015.65
2018-04-15T05:55:18.515Z,1015.67
2018-04-15T05:56:38.914Z,1015.65
2018-04-15T05:57:39.991Z,1015.60
2018-04-15T05:59:00.285Z,1015.58
2018-04-15T06:00:01.071Z,1015.61
2018-04-15T06:01:00.634Z,1015.60
2018-04-15T06:02:00.770Z,1015.57
2018-04-15T06:03:00.560Z,1015.55
2018-04-15T06:04:00.876Z,1015.54
2018-04-15T06:05:42.770Z,1015.56
2018-04-15T06:06:43.698Z,1015.50
2018-04-15T06:07:42.924Z,1015.50
2018-04-15T06:08:43.064Z,1015.48
2018-04-15T06:10:03.523Z,1015.49
2018-04-15T06:11:03.632Z,1015.49
2018-04-15T06:12:03.486Z,1015.48
2018-04-15T06:13:03.551Z,1015.47
2018-04-15T06:14:03.676Z,1015.45
2018-04-15T06:15:03.962Z,1015.44
2018-04-15T06:16:03.870Z,1015.43
2018-04-15T06:17:25.672Z,1015.46
2018-04-15T06:18:25.946Z,1015.45
2018-04-15T06:19:46.904Z,1015.42
2018-04-15T06:20:46.654Z,1015.39
2018-04-15T06:21:46.496Z,1015.41
2018-04-15T06:23:07.820Z,1015.35
2018-04-15T06:24:08.804Z,1015.38
2018-04-15T06:25:29.692Z,1015.31
2018-04-15T06:26:30.772Z,1015.36
2018-04-15T06:28:12.624Z,1015.33
2018-04-15T06:29:12.746Z,1015.32
2018-04-15T06:30:12.784Z,1015.24
2018-04-15T06:31:13.020Z,1015.26
2018-04-15T06:32:13.265Z,1015.26
2018-04-15T06:33:13.117Z,1015.26
2018-04-15T06:34:13.375Z,1015.26
2018-04-15T06:35:13.592Z,1015.28
2018-04-15T06:36:12.853Z,1015.27
2018-04-15T06:37:13.438Z,1015.20
2018-04-15T06:38:55.592Z,1015.26
2018-04-15T06:39:56.928Z,1015.26
2018-04-15T06:40:56.037Z,1015.26
2018-04-15T06:41:56.192Z,1015.26
2018-04-15T06:42:56.348Z,1015.25
2018-04-15T06:43:56.379Z,1015.24
2018-04-15T06:44:56.254Z,1015.20
2018-04-15T06:45:56.129Z,1015.21
2018-04-15T06:46:56.003Z,1015.15
2018-04-15T06:48:17.644Z,1015.12
2018-04-15T06:49:18.466Z,1015.13
2018-04-15T06:51:05.744Z,1015.10
2018-04-15T06:52:06.011Z,1015.08
2018-04-15T06:53:06.176Z,1015.15
2018-04-15T06:54:06.114Z,1015.13
2018-04-15T06:55:06.507Z,1015.11
2018-04-15T06:56:26.801Z,1015.13
2018-04-15T06:57:26.487Z,1015.12
2018-04-15T06:58:27.350Z,1015.16
2018-04-15T06:59:27.691Z,1015.13
2018-04-15T07:00:32.000Z,1015.13
2018-04-15T07:01:28.644Z,1015.11
2018-04-15T07:02:26.783Z,1015.13
2018-04-15T07:03:26.936Z,1015.10
2018-04-15T07:04:28.000Z,1015.09
2018-04-15T07:05:27.005Z,1015.04
2018-04-15T07:06:48.763Z,1015.03
2018-04-15T07:07:49.322Z,1015.06
2018-04-15T07:08:48.605Z,1015.06
2018-04-15T07:09:48.945Z,1015.05
2018-04-15T07:10:50.206Z,1015.03
2018-04-15T07:11:48.384Z,1015.02
2018-04-15T07:13:31.249Z,1014.94
2018-04-15T07:14:32.031Z,1014.94
2018-04-15T07:15:31.316Z,1014.96
2018-04-15T07:16:35.460Z,1014.91
2018-04-15T07:17:31.267Z,1014.92
2018-04-15T07:18:52.426Z,1014.90
2018-04-15T07:19:54.261Z,1014.86
2018-04-15T07:21:14.033Z,1014.84
2018-04-15T07:22:14.228Z,1014.86
2018-04-15T07:23:13.987Z,1014.85
2018-04-15T07:24:15.100Z,1014.84
2018-04-15T07:25:34.481Z,1014.85
2018-04-15T07:26:35.277Z,1014.79
2018-04-15T07:27:36.325Z,1014.81
2018-04-15T07:28:35.915Z,1014.79
2018-04-15T07:29:35.058Z,1014.77
2018-04-15T07:30:35.223Z,1014.78
2018-04-15T07:31:35.314Z,1014.77
2018-04-15T07:32:35.766Z,1014.77
2018-04-15T07:33:35.806Z,1014.74
2018-04-15T07:34:35.177Z,1014.79
2018-04-15T07:35:56.957Z,1014.77
2018-04-15T07:36:57.097Z,1014.75
2018-04-15T07:37:58.443Z,1014.74
2018-04-15T07:38:57.950Z,1014.71
2018-04-15T07:39:58.535Z,1014.74
2018-04-15T07:40:58.177Z,1014.77
2018-04-15T07:41:58.069Z,1014.77
2018-04-15T07:42:58.390Z,1014.78
2018-04-15T07:43:57.132Z,1014.77
2018-04-15T07:44:57.738Z,1014.76
2018-04-15T07:45:56.693Z,1014.69
2018-04-15T07:46:57.238Z,1014.76
2018-04-15T07:47:57.620Z,1014.76
2018-04-15T07:48:57.188Z,1014.71
2018-04-15T07:49:57.072Z,1014.63
2018-04-15T07:50:57.266Z,1014.66
2018-04-15T07:51:57.635Z,1014.61
2018-04-15T07:52:57.230Z,1014.66
2018-04-15T07:53:57.579Z,1014.62
2018-04-15T07:54:57.628Z,1014.59
2018-04-15T07:55:56.866Z,1014.59
2018-04-15T07:56:57.833Z,1014.55
2018-04-15T07:57:57.165Z,1014.54
2018-04-15T07:58:57.397Z,1014.52
2018-04-15T07:59:58.844Z,1014.52
2018-04-15T08:00:57.012Z,1014.49
2018-04-15T08:01:57.198Z,1014.51
2018-04-15T08:02:57.706Z,1014.49
2018-04-15T08:03:57.246Z,1014.50
2018-04-15T08:04:59.426Z,1014.45
2018-04-15T08:05:58.026Z,1014.46
2018-04-15T08:06:57.267Z,1014.44
2018-04-15T08:07:57.681Z,1014.43
2018-04-15T08:08:56.981Z,1014.40
2018-04-15T08:09:57.336Z,1014.34
2018-04-15T08:10:57.335Z,1014.35
2018-04-15T08:11:58.216Z,1014.29
2018-04-15T08:12:57.507Z,1014.32
2018-04-15T08:13:56.805Z,1014.28
2018-04-15T08:14:57.020Z,1014.27
2018-04-15T08:15:58.127Z,1014.24
2018-04-15T08:16:57.848Z,1014.26
2018-04-15T08:18:18.325Z,1014.26
2018-04-15T08:19:18.919Z,1014.24
2018-04-15T08:20:18.919Z,1014.24
2018-04-15T08:21:18.531Z,1014.25
2018-04-15T08:22:18.973Z,1014.21
2018-04-15T08:23:18.308Z,1014.25
2018-04-15T08:24:19.292Z,1014.26
2018-04-15T08:25:40.041Z,1014.25
2018-04-15T08:26:40.077Z,1014.24
2018-04-15T08:27:40.599Z,1014.24
2018-04-15T08:29:02.716Z,1014.26
2018-04-15T08:30:03.487Z,1014.21
2018-04-15T08:31:05.142Z,1014.21
2018-04-15T08:32:26.651Z,1014.25
2018-04-15T08:33:25.797Z,1014.21
2018-04-15T08:34:26.982Z,1014.22
2018-04-15T08:35:26.683Z,1014.22
2018-04-15T08:36:27.053Z,1014.11
2018-04-15T08:37:26.302Z,1014.14
2018-04-15T08:38:26.382Z,1014.12
2018-04-15T08:39:26.928Z,1014.12
2018-04-15T08:40:26.106Z,1014.04
2018-04-15T08:41:26.186Z,1014.07
2018-04-15T08:42:26.802Z,1014.07
2018-04-15T08:43:26.063Z,1014.05
2018-04-15T08:44:27.060Z,1014.07
2018-04-15T08:45:27.883Z,1014.02
2018-04-15T08:46:26.579Z,1014.01
2018-04-15T08:47:25.818Z,1014.01
2018-04-15T08:48:26.774Z,1014.00
2018-04-15T08:49:26.819Z,1013.96
2018-04-15T08:50:27.529Z,1013.96
2018-04-15T08:51:49.214Z,1013.98
2018-04-15T08:52:50.906Z,1013.98
2018-04-15T08:53:50.726Z,1013.97
2018-04-15T08:54:49.051Z,1013.95
2018-04-15T08:55:48.509Z,1014.00
2018-04-15T08:56:48.943Z,1014.00
2018-04-15T08:57:51.415Z,1013.98
2018-04-15T08:59:09.758Z,1014.00
2018-04-15T09:00:10.011Z,1013.98
2018-04-15T09:01:53.224Z,1013.97
2018-04-15T09:02:54.010Z,1013.96
2018-04-15T09:03:53.755Z,1013.90
2018-04-15T09:05:14.530Z,1013.84
2018-04-15T09:06:38.618Z,1013.84
2018-04-15T09:07:38.419Z,1013.83
2018-04-15T09:08:59.417Z,1013.82
2018-04-15T09:09:59.907Z,1013.85
2018-04-15T09:11:00.745Z,1013.87
2018-04-15T09:12:21.406Z,1013.88
2018-04-15T09:13:21.239Z,1013.88
2018-04-15T09:14:20.571Z,1013.90
2018-04-15T09:15:21.002Z,1013.89
2018-04-15T09:16:20.185Z,1013.84
2018-04-15T09:17:21.054Z,1013.78
2018-04-15T09:18:20.607Z,1013.84
2018-04-15T09:19:21.024Z,1013.86
2018-04-15T09:20:20.780Z,1013.85
2018-04-15T09:21:21.496Z,1013.85
2018-04-15T09:22:21.163Z,1013.88
2018-04-15T09:24:24.417Z,1013.84
2018-04-15T09:25:24.864Z,1013.87
2018-04-15T09:26:25.617Z,1013.87
2018-04-15T09:27:23.927Z,1013.86
2018-04-15T09:28:24.445Z,1013.87
2018-04-15T09:29:26.139Z,1013.86
2018-04-15T09:30:24.756Z,1013.91
2018-04-15T09:31:24.454Z,1013.87
2018-04-15T09:32:48.407Z,1013.86
2018-04-15T09:33:48.638Z,1013.84
2018-04-15T09:34:48.294Z,1013.80
2018-04-15T09:36:11.918Z,1013.79
2018-04-15T09:37:09.727Z,1013.78
2018-04-15T09:38:09.562Z,1013.79
2018-04-15T09:39:10.157Z,1013.80
2018-04-15T09:40:10.659Z,1013.77
2018-04-15T09:41:31.313Z,1013.78
2018-04-15T09:42:31.386Z,1013.77
2018-04-15T09:43:33.392Z,1013.80
2018-04-15T09:44:55.975Z,1013.75
2018-04-15T09:45:58.576Z,1013.75
2018-04-15T09:47:39.174Z,1013.72
2018-04-15T09:48:40.511Z,1013.67
2018-04-15T09:49:39.966Z,1013.67
2018-04-15T09:50:40.037Z,1013.67
2018-04-15T09:51:40.843Z,1013.65
2018-04-15T09:52:40.358Z,1013.66
2018-04-15T09:53:39.727Z,1013.65
2018-04-15T09:55:03.204Z,1013.65
2018-04-15T09:56:24.095Z,1013.63
2018-04-15T09:57:50.716Z,1013.61
2018-04-15T09:58:49.044Z,1013.59
2018-04-15T09:59:49.501Z,1013.59
2018-04-15T10:00:51.640Z,1013.59
2018-04-15T10:01:48.752Z,1013.59
2018-04-15T10:02:50.648Z,1013.59
2018-04-15T10:03:49.727Z,1013.58
2018-04-15T10:05:14.203Z,1013.52
2018-04-15T10:06:13.953Z,1013.52
2018-04-15T10:07:12.470Z,1013.45
2018-04-15T10:08:57.643Z,1013.39
2018-04-15T10:09:57.678Z,1013.35
2018-04-15T10:10:57.534Z,1013.31
2018-04-15T10:11:57.016Z,1013.31
2018-04-15T10:13:21.652Z,1013.23
2018-04-15T10:14:20.911Z,1013.22
2018-04-15T10:15:22.681Z,1013.24
2018-04-15T10:16:23.107Z,1013.26
2018-04-15T10:17:45.224Z,1013.31
2018-04-15T10:18:46.654Z,1013.25
2018-04-15T10:19:45.340Z,1013.26
2018-04-15T10:21:08.801Z,1013.32
2018-04-15T10:22:32.263Z,1013.35
2018-04-15T10:23:32.533Z,1013.38
2018-04-15T10:24:32.684Z,1013.38
2018-04-15T10:25:32.070Z,1013.40
2018-04-15T10:26:57.416Z,1013.40
2018-04-15T10:27:56.697Z,1013.40
2018-04-15T10:28:58.329Z,1013.42
2018-04-15T10:29:56.557Z,1013.40
2018-04-15T10:30:56.906Z,1013.35
2018-04-15T10:32:23.290Z,1013.37
2018-04-15T10:33:24.171Z,1013.37
2018-04-15T10:34:23.469Z,1013.35
2018-04-15T10:35:22.490Z,1013.34
2018-04-15T10:36:24.122Z,1013.37
2018-04-15T10:37:47.719Z,1013.28
2018-04-15T10:39:13.624Z,1013.25
2018-04-15T10:41:30.676Z,1013.22
2018-04-15T10:42:30.195Z,1013.26
2018-04-15T10:43:30.878Z,1013.24
2018-04-15T10:44:53.265Z,1013.24
2018-04-15T10:45:53.739Z,1013.23
2018-04-15T10:46:56.188Z,1013.16
2018-04-15T10:48:24.713Z,1013.18
2018-04-15T10:49:24.252Z,1013.16
2018-04-15T10:50:24.109Z,1013.21
2018-04-15T10:51:25.635Z,1013.19
2018-04-15T10:52:25.341Z,1013.20
2018-04-15T10:53:25.302Z,1013.24
2018-04-15T10:54:22.982Z,1013.27
2018-04-15T10:55:24.623Z,1013.28
2018-04-15T10:56:51.073Z,1013.32
2018-04-15T10:57:50.882Z,1013.33
2018-04-15T10:58:52.544Z,1013.28
2018-04-15T10:59:54.336Z,1013.33
2018-04-15T11:00:54.234Z,1013.35
2018-04-15T11:01:54.318Z,1013.31
2018-04-15T11:02:52.416Z,1013.39
2018-04-15T11:03:53.396Z,1013.39
2018-04-15T11:04:52.593Z,1013.42
2018-04-15T11:05:50.826Z,1013.44
2018-04-15T11:06:52.468Z,1013.43
2018-04-15T11:07:53.602Z,1013.49
2018-04-15T11:08:53.271Z,1013.42
2018-04-15T11:09:51.937Z,1013.43
2018-04-15T11:10:50.953Z,1013.45
2018-04-15T11:11:52.100Z,1013.34
2018-04-15T11:12:50.971Z,1013.30
2018-04-15T11:14:18.758Z,1013.26
2018-04-15T11:15:17.240Z,1013.28
2018-04-15T11:16:19.069Z,1013.28
2018-04-15T11:18:06.265Z,1013.29
2018-04-15T11:19:07.259Z,1013.32
2018-04-15T11:20:30.312Z,1013.16
2018-04-15T11:21:31.313Z,1013.12
2018-04-15T11:22:29.991Z,1013.09
2018-04-15T11:23:30.738Z,1013.10
2018-04-15T11:24:57.194Z,1013.08
2018-04-15T11:25:58.347Z,1013.04
2018-04-15T11:27:24.164Z,1013.07
2018-04-15T11:28:24.285Z,1013.03
2018-04-15T11:29:30.264Z,1012.97
2018-04-15T11:31:38.776Z,1012.93
2018-04-15T11:32:41.282Z,1012.96
2018-04-15T11:33:39.887Z,1012.90
2018-04-15T11:34:37.767Z,1012.94
2018-04-15T11:35:43.098Z,1012.91
2018-04-15T11:37:04.406Z,1012.86
2018-04-15T11:38:07.901Z,1012.89
2018-04-15T11:39:03.740Z,1012.94
2018-04-15T11:40:06.641Z,1013.00
2018-04-15T11:41:07.420Z,1012.96
2018-04-15T11:42:05.739Z,1012.96
2018-04-15T11:43:04.581Z,1012.89
2018-04-15T11:44:31.771Z,1012.92
2018-04-15T11:45:32.562Z,1012.89
2018-04-15T11:46:31.648Z,1012.86
2018-04-15T11:47:32.185Z,1012.86
2018-04-15T11:48:32.029Z,1012.82
2018-04-15T11:50:01.747Z,1012.90
2018-04-15T11:51:04.665Z,1012.88
2018-04-15T11:51:59.327Z,1012.89
2018-04-15T11:53:25.143Z,1012.90
2018-04-15T11:54:22.646Z,1012.90
2018-04-15T11:55:25.271Z,1012.91
2018-04-15T11:56:48.591Z,1012.86
2018-04-15T11:57:50.752Z,1012.86
2018-04-15T11:58:48.802Z,1012.86
2018-04-15T11:59:49.214Z,1012.85
2018-04-15T12:00:57.822Z,1012.78
2018-04-15T12:03:16.988Z,1012.73
2018-04-15T12:04:13.341Z,1012.72
2018-04-15T12:05:14.704Z,1012.78
2018-04-15T12:06:09.456Z,1012.71
2018-04-15T12:07:07.331Z,1012.71
2018-04-15T12:08:41.180Z,1012.68
2018-04-15T12:09:35.282Z,1012.73
2018-04-15T12:11:08.351Z,1012.75
2018-04-15T12:12:10.249Z,1012.82
2018-04-15T12:13:58.706Z,1012.85
2018-04-15T12:15:35.917Z,1012.84
2018-04-15T12:16:32.314Z,1012.81
2018-04-15T12:17:31.858Z,1012.81
2018-04-15T12:19:08.979Z,1012.73
2018-04-15T12:20:01.095Z,1012.78
2018-04-15T12:21:11.066Z,1012.76
2018-04-15T12:22:03.979Z,1012.72
2018-04-15T12:23:08.248Z,1012.75
2018-04-15T12:24:45.414Z,1012.65
2018-04-15T12:25:33.482Z,1012.69
2018-04-15T12:26:34.080Z,1012.68
2018-04-15T12:27:33.945Z,1012.67
2018-04-15T12:28:33.148Z,1012.70
2018-04-15T12:29:34.488Z,1012.66
2018-04-15T12:30:37.380Z,1012.70
2018-04-15T12:31:35.972Z,1012.71
2018-04-15T12:32:31.905Z,1012.78
2018-04-15T12:33:33.237Z,1012.75
2018-04-15T12:34:33.474Z,1012.74
2018-04-15T12:35:34.015Z,1012.74
2018-04-15T12:36:34.659Z,1012.70
2018-04-15T12:37:32.509Z,1012.74
2018-04-15T12:38:59.508Z,1012.72
2018-04-15T12:40:01.796Z,1012.68
2018-04-15T12:41:00.478Z,1012.67
2018-04-15T12:42:02.885Z,1012.67
2018-04-15T12:42:59.543Z,1012.67
2018-04-15T12:44:24.282Z,1012.64
2018-04-15T12:45:42.501Z,1012.69
2018-04-15T12:46:43.513Z,1012.62
2018-04-15T12:47:46.450Z,1012.66
2018-04-15T12:48:43.711Z,1012.69
2018-04-15T12:49:42.765Z,1012.68
2018-04-15T12:50:44.198Z,1012.64
2018-04-15T12:51:43.878Z,1012.63
2018-04-15T12:52:44.112Z,1012.59
2018-04-15T12:53:44.700Z,1012.61
2018-04-15T12:54:44.085Z,1012.63
2018-04-15T12:56:09.939Z,1012.59
2018-04-15T12:57:31.776Z,1012.60
2018-04-15T12:58:59.899Z,1012.65
2018-04-15T13:00:22.890Z,1012.67
2018-04-15T13:01:22.553Z,1012.61
2018-04-15T13:02:23.107Z,1012.57
2018-04-15T13:03:50.274Z,1012.50
2018-04-15T13:04:53.999Z,1012.56
2018-04-15T13:05:48.582Z,1012.49
2018-04-15T13:06:51.247Z,1012.46
2018-04-15T13:07:50.786Z,1012.45
2018-04-15T13:08:51.166Z,1012.46
2018-04-15T13:10:36.065Z,1012.44
2018-04-15T13:11:36.054Z,1012.46
2018-04-15T13:13:01.160Z,1012.49
2018-04-15T13:14:00.434Z,1012.39
2018-04-15T13:15:03.179Z,1012.45
2018-04-15T13:16:01.285Z,1012.34
2018-04-15T13:17:02.092Z,1012.37
2018-04-15T13:18:02.629Z,1012.35
2018-04-15T13:19:02.477Z,1012.29